Terminal Aerodrome Forecast
Issued by NWS Milwaukee/Sullivan, WI

Home | Current Version | Previous Version | Text Only | Print | Product List | Glossary On
Versions: 1 2 3 4 5 6 7 8 9 10 11 12 13 14 15 16 17 18 19 20 21 22 23 24 25 26 27 28 29 30 31 32 33 34 35 36 37 38 39 40 41 42 43 44 45 46 47 48 49
456
FTUS43 KMKX 080544
TAFMSN
TAF
KMSN 080544Z 0806/0906 25006KT P6SM VCSH BKN023 OVC040
     FM080700 27007KT P6SM -SN OVC025
     FM080900 29007KT 6SM -SN OVC010
     FM081700 31008KT 3SM -SN OVC010
     FM081800 32008KT 5SM -SN OVC015
     FM082300 32013G22KT 2SM -SN OVC010=

USA.gov is the U.S. government's official web portal to all federal, state and local government web resources and services.